Chelmsford, Canada
Current Conditions -  °F | °C
As of 1:00 AM on Sunday 26 Oct 2014 (Local Time) from CYSB Reporting Station
Rain Showers Rain Showers  
Wind Chill: 32°   Ceiling: 2100
Heat Index: 41°   Visibility: 15mi
Dew Point: 37°   Wind: 17mph
Humidity: 87%   Direction: 300°WNW
Pressure: 29.51"   Gusts: 23mph
Location:  46.58°N, 81.2°W
Report Text: CYSB 260500Z 30015G20KT 15SM -SHRA OVC021 05/03 A2951 RMK SC8 SLP002
Loading
Personal Weather Stations






























Interactive Weather Map
Tropical Storm Tracking
New forecast layout! Learn more

10-Day Weather Forecast

Advertisements
Track Severe Weather on mobile